createdAt,value
2022-10-15T00:01:44.809Z,2.03
2022-10-15T00:04:13.757Z,1.95
2022-10-15T00:06:41.264Z,4.20
2022-10-15T00:09:08.797Z,3.88
2022-10-15T00:11:36.943Z,2.25
2022-10-15T00:14:04.629Z,2.60
2022-10-15T00:16:33.517Z,2.25
2022-10-15T00:19:01.174Z,1.05
2022-10-15T00:21:30.218Z,1.38
2022-10-15T00:23:58.246Z,1.02
2022-10-15T00:26:28.204Z,1.45
2022-10-15T00:28:57.961Z,2.38
2022-10-15T00:31:27.145Z,0.52
2022-10-15T00:33:55.870Z,2.40
2022-10-15T00:36:25.896Z,0.10
2022-10-15T00:38:54.883Z,0.63
2022-10-15T00:41:24.802Z,1.40
2022-10-15T00:43:56.231Z,0.40
2022-10-15T00:46:25.940Z,0.52
2022-10-15T00:48:57.811Z,0.43
2022-10-15T00:51:40.616Z,1.55
2022-10-15T00:54:11.160Z,0.43
2022-10-15T00:56:42.459Z,0.98
2022-10-15T00:59:12.421Z,1.38
2022-10-15T01:01:40.235Z,0.95
2022-10-15T01:04:08.967Z,0.50
2022-10-15T01:06:37.679Z,1.35
2022-10-15T01:09:05.745Z,0.50
2022-10-15T01:11:42.361Z,0.52
2022-10-15T01:14:29.303Z,0.63
2022-10-15T01:17:05.755Z,0.10
2022-10-15T01:19:58.603Z,0.80
2022-10-15T01:22:39.236Z,0.88
2022-10-15T01:25:23.571Z,0.10
2022-10-15T01:27:56.179Z,0.00
2022-10-15T01:30:27.628Z,0.00
2022-10-15T01:33:14.807Z,0.00
2022-10-15T01:35:49.596Z,2.22
2022-10-15T01:38:34.052Z,0.10
2022-10-15T01:41:09.753Z,0.90
2022-10-15T01:43:44.818Z,0.10
2022-10-15T01:46:58.766Z,0.10
2022-10-15T01:49:31.182Z,0.40
2022-10-15T01:52:01.900Z,0.20
2022-10-15T01:54:31.304Z,0.10
2022-10-15T01:57:00.446Z,0.85
2022-10-15T01:59:32.768Z,0.30
2022-10-15T02:02:01.978Z,0.10
2022-10-15T02:04:31.657Z,0.13
2022-10-15T02:07:03.254Z,1.20
2022-10-15T02:09:40.789Z,0.70
2022-10-15T02:12:16.515Z,0.00
2022-10-15T02:14:52.624Z,0.10
2022-10-15T02:17:28.945Z,0.30
2022-10-15T02:20:01.719Z,0.10
2022-10-15T02:22:35.377Z,0.08
2022-10-15T02:25:07.839Z,0.93
2022-10-15T02:27:38.216Z,0.10
2022-10-15T02:30:09.932Z,0.00
2022-10-15T02:32:42.239Z,0.73
2022-10-15T02:35:12.118Z,0.20
2022-10-15T02:37:48.374Z,0.10
2022-10-15T02:40:20.639Z,0.57
2022-10-15T02:42:50.036Z,0.38
2022-10-15T02:45:17.609Z,0.30
2022-10-15T02:47:46.853Z,0.10
2022-10-15T02:50:14.571Z,0.10
2022-10-15T02:52:42.133Z,1.23
2022-10-15T02:55:10.601Z,0.00
2022-10-15T02:57:38.221Z,0.80
2022-10-15T03:00:08.097Z,1.45
2022-10-15T03:02:36.084Z,2.05
2022-10-15T03:05:05.827Z,0.20
2022-10-15T03:07:33.610Z,1.30
2022-10-15T03:10:01.150Z,0.60
2022-10-15T03:12:29.110Z,0.00
2022-10-15T03:14:57.180Z,0.43
2022-10-15T03:17:25.804Z,0.13
2022-10-15T03:19:53.673Z,0.22
2022-10-15T03:22:24.001Z,0.17
2022-10-15T03:24:54.021Z,0.10
2022-10-15T03:27:27.575Z,0.15
2022-10-15T03:29:55.172Z,0.05
2022-10-15T03:32:25.037Z,0.40
2022-10-15T03:34:53.105Z,0.75
2022-10-15T03:37:21.853Z,0.10
2022-10-15T03:39:51.081Z,0.03
2022-10-15T03:42:19.575Z,1.17
2022-10-15T03:44:47.787Z,0.00
2022-10-15T03:47:19.053Z,2.15
2022-10-15T03:49:48.677Z,1.20
2022-10-15T03:52:16.573Z,0.70
2022-10-15T03:54:46.165Z,2.15
2022-10-15T03:57:17.784Z,1.17
2022-10-15T03:59:53.996Z,1.08
2022-10-15T04:02:24.705Z,0.63
2022-10-15T04:04:53.782Z,0.60
2022-10-15T04:07:21.742Z,0.10
2022-10-15T04:09:49.523Z,0.15
2022-10-15T04:12:25.520Z,0.20
2022-10-15T04:14:53.367Z,0.30
2022-10-15T04:17:20.948Z,0.10
2022-10-15T04:19:49.215Z,1.08
2022-10-15T04:22:16.883Z,0.20
2022-10-15T04:24:49.608Z,2.50
2022-10-15T04:27:27.995Z,0.20
2022-10-15T04:30:06.039Z,0.35
2022-10-15T04:32:33.900Z,0.88
2022-10-15T04:35:01.609Z,1.73
2022-10-15T04:37:48.072Z,1.98
2022-10-15T04:40:16.989Z,2.65
2022-10-15T04:42:45.916Z,0.20
2022-10-15T04:45:13.771Z,1.27
2022-10-15T04:47:41.396Z,0.68
2022-10-15T04:50:12.728Z,0.68
2022-10-15T04:53:00.412Z,0.88
2022-10-15T04:55:31.100Z,0.40
2022-10-15T04:58:02.140Z,0.80
2022-10-15T05:00:31.135Z,0.47
2022-10-15T05:03:37.445Z,0.85
2022-10-15T05:06:10.066Z,1.15
2022-10-15T05:08:41.802Z,1.10
2022-10-15T05:11:28.333Z,0.43
2022-10-15T05:13:59.852Z,1.98
2022-10-15T05:16:29.879Z,1.02
2022-10-15T05:19:01.980Z,0.60
2022-10-15T05:21:31.572Z,0.88
2022-10-15T05:24:02.323Z,1.02
2022-10-15T05:26:55.051Z,0.40
2022-10-15T05:29:25.344Z,1.30
2022-10-15T05:31:53.340Z,1.02
2022-10-15T05:34:28.501Z,0.93
2022-10-15T05:37:00.917Z,1.52
2022-10-15T05:39:28.488Z,0.68
2022-10-15T05:41:56.300Z,0.93
2022-10-15T05:44:34.379Z,0.20
2022-10-15T05:47:01.982Z,0.90
2022-10-15T05:49:29.538Z,0.68
2022-10-15T05:52:05.070Z,1.20
2022-10-15T05:54:58.553Z,1.25
2022-10-15T05:57:26.081Z,1.13
2022-10-15T05:59:54.967Z,1.42
2022-10-15T06:02:23.164Z,0.93
2022-10-15T06:04:53.258Z,1.80
2022-10-15T06:07:21.344Z,0.80
2022-10-15T06:09:48.996Z,1.90
2022-10-15T06:12:18.089Z,1.88
2022-10-15T06:14:45.625Z,6.78
2022-10-15T06:17:14.457Z,2.85
2022-10-15T06:19:42.979Z,1.25
2022-10-15T06:22:10.704Z,0.60
2022-10-15T06:24:38.247Z,1.73
2022-10-15T06:27:09.837Z,2.33
2022-10-15T06:29:37.357Z,1.13
2022-10-15T06:32:05.400Z,0.80
2022-10-15T06:34:34.223Z,2.60
2022-10-15T06:37:01.789Z,0.55
2022-10-15T06:39:29.348Z,0.70
2022-10-15T06:41:56.986Z,0.77
2022-10-15T06:44:30.900Z,0.73
2022-10-15T06:46:58.898Z,1.50
2022-10-15T06:49:26.486Z,4.22
2022-10-15T06:51:58.387Z,2.33
2022-10-15T06:54:28.468Z,1.30
2022-10-15T06:56:56.042Z,2.88
2022-10-15T06:59:23.568Z,1.80
2022-10-15T07:01:51.161Z,1.95
2022-10-15T07:04:18.725Z,3.00
2022-10-15T07:06:46.476Z,1.85
2022-10-15T07:09:19.330Z,1.73
2022-10-15T07:11:46.841Z,2.05
2022-10-15T07:14:14.376Z,2.38
2022-10-15T07:16:41.924Z,0.77
2022-10-15T07:19:09.453Z,1.27
2022-10-15T07:21:37.046Z,1.92
2022-10-15T07:24:04.983Z,1.27
2022-10-15T07:26:35.548Z,1.10
2022-10-15T07:29:03.769Z,1.98
2022-10-15T07:31:31.487Z,1.42
2022-10-15T07:33:59.116Z,5.43
2022-10-15T07:36:27.472Z,2.47
2022-10-15T07:38:55.057Z,1.77
2022-10-15T07:41:23.242Z,1.98
2022-10-15T07:43:54.091Z,3.22
2022-10-15T07:46:21.631Z,1.02
2022-10-15T07:48:55.929Z,3.90
2022-10-15T07:51:23.560Z,10.77
2022-10-15T07:53:51.173Z,1.60
2022-10-15T07:56:19.176Z,2.42
2022-10-15T07:58:51.905Z,5.05
2022-10-15T08:01:21.993Z,5.18
2022-10-15T08:03:49.636Z,3.85
2022-10-15T08:06:17.271Z,7.35
2022-10-15T08:08:44.959Z,5.82
2022-10-15T08:11:14.206Z,3.80
2022-10-15T08:13:42.955Z,4.10
2022-10-15T08:16:11.853Z,5.65
2022-10-15T08:18:41.365Z,4.40
2022-10-15T08:21:09.545Z,2.15
2022-10-15T08:23:37.440Z,2.72
2022-10-15T08:26:05.889Z,1.42
2022-10-15T08:28:35.003Z,2.75
2022-10-15T08:31:05.551Z,1.65
2022-10-15T08:33:35.018Z,1.88
2022-10-15T08:36:06.194Z,0.43
2022-10-15T08:38:34.205Z,1.75
2022-10-15T08:41:04.173Z,1.42
2022-10-15T08:43:36.272Z,2.65
2022-10-15T08:46:10.807Z,0.65
2022-10-15T08:48:43.636Z,1.65
2022-10-15T08:51:15.881Z,1.75
2022-10-15T08:53:47.287Z,1.55
2022-10-15T08:56:18.854Z,2.53
2022-10-15T08:58:54.589Z,1.30
2022-10-15T09:01:27.582Z,1.63
2022-10-15T09:04:07.814Z,0.30
2022-10-15T09:06:38.815Z,2.05
2022-10-15T09:09:12.995Z,0.32
2022-10-15T09:11:52.205Z,0.57
2022-10-15T09:14:25.537Z,1.20
2022-10-15T09:19:22.569Z,1.13
2022-10-15T09:21:52.892Z,4.90
2022-10-15T09:24:24.510Z,2.28
2022-10-15T09:27:06.703Z,0.28
2022-10-15T09:29:41.492Z,0.50
2022-10-15T09:32:17.626Z,1.15
2022-10-15T09:34:49.597Z,0.40
2022-10-15T09:37:25.093Z,2.80
2022-10-15T09:40:14.602Z,3.10
2022-10-15T09:42:43.685Z,0.25
2022-10-15T09:45:16.805Z,0.40
2022-10-15T09:47:45.289Z,0.32
2022-10-15T09:50:15.127Z,1.33
2022-10-15T09:53:01.148Z,0.47
2022-10-15T09:55:42.709Z,1.13
2022-10-15T09:58:15.595Z,0.30
2022-10-15T10:00:59.532Z,0.05
2022-10-15T10:03:37.237Z,2.03
2022-10-15T10:06:08.100Z,1.13
2022-10-15T10:11:20.782Z,0.38
2022-10-15T10:13:52.669Z,0.52
2022-10-15T10:16:21.999Z,0.77
2022-10-15T10:19:06.856Z,1.73
2022-10-15T10:21:36.152Z,5.07
2022-10-15T10:24:23.331Z,1.67
2022-10-15T10:26:51.122Z,2.58
2022-10-15T10:29:33.477Z,1.45
2022-10-15T10:32:11.964Z,1.98
2022-10-15T10:34:39.852Z,1.63
2022-10-15T10:37:10.047Z,1.60
2022-10-15T10:39:39.132Z,0.85
2022-10-15T10:42:08.888Z,2.35
2022-10-15T10:44:38.710Z,1.05
2022-10-15T10:47:15.232Z,1.98
2022-10-15T10:49:45.173Z,2.38
2022-10-15T10:52:27.270Z,0.70
2022-10-15T10:55:01.180Z,0.90
2022-10-15T10:57:39.690Z,1.23
2022-10-15T11:00:09.651Z,0.30
2022-10-15T11:02:43.723Z,0.88
2022-10-15T11:05:12.024Z,1.45
2022-10-15T11:07:47.684Z,1.70
2022-10-15T11:10:22.297Z,1.63
2022-10-15T11:13:03.731Z,2.17
2022-10-15T11:15:50.761Z,3.90
2022-10-15T11:18:32.680Z,1.00
2022-10-15T11:21:11.552Z,2.35
2022-10-15T11:23:54.047Z,2.45
2022-10-15T11:26:51.995Z,0.80
2022-10-15T11:29:39.701Z,2.35
2022-10-15T11:32:23.295Z,1.10
2022-10-15T11:35:12.293Z,2.42
2022-10-15T11:37:52.064Z,1.20
2022-10-15T11:40:25.823Z,1.10
2022-10-15T11:42:59.464Z,1.77
2022-10-15T11:45:49.539Z,1.08
2022-10-15T11:48:26.933Z,1.27
2022-10-15T11:50:58.489Z,1.98
2022-10-15T11:53:44.589Z,1.20
2022-10-15T11:56:14.823Z,1.75
2022-10-15T11:58:48.751Z,2.13
2022-10-15T12:01:21.113Z,4.43
2022-10-15T12:03:55.021Z,2.08
2022-10-15T12:06:26.405Z,1.02
2022-10-15T12:08:56.119Z,0.55
2022-10-15T12:11:32.663Z,1.50
2022-10-15T12:14:08.191Z,1.30
2022-10-15T12:16:45.132Z,2.85
2022-10-15T12:19:18.229Z,1.23
2022-10-15T12:22:13.712Z,3.40
2022-10-15T12:24:53.405Z,1.35
2022-10-15T12:27:29.581Z,3.13
2022-10-15T12:30:32.209Z,0.52
2022-10-15T12:32:59.831Z,1.60
2022-10-15T12:35:36.137Z,0.68
2022-10-15T12:38:13.196Z,2.47
2022-10-15T12:40:41.579Z,1.42
2022-10-15T12:43:15.137Z,0.30
2022-10-15T12:45:54.933Z,1.45
2022-10-15T12:48:31.692Z,2.20
2022-10-15T12:51:38.168Z,2.72
2022-10-15T12:54:37.531Z,0.50
2022-10-15T12:57:43.428Z,1.13
2022-10-15T13:00:41.171Z,1.60
2022-10-15T13:03:35.318Z,1.33
2022-10-15T13:06:23.475Z,0.98
2022-10-15T13:08:54.340Z,0.50
2022-10-15T13:11:25.323Z,0.50
2022-10-15T13:13:58.327Z,0.30
2022-10-15T13:16:25.995Z,0.80
2022-10-15T13:18:57.152Z,1.45
2022-10-15T13:21:49.428Z,0.50
2022-10-15T13:24:20.600Z,2.45
2022-10-15T13:26:48.257Z,0.10
2022-10-15T13:29:19.879Z,0.68
2022-10-15T13:31:48.147Z,0.57
2022-10-15T13:34:25.644Z,0.20
2022-10-15T13:36:54.906Z,0.10
2022-10-15T13:39:28.245Z,0.90
2022-10-15T13:42:07.721Z,2.75
2022-10-15T13:44:35.899Z,0.93
2022-10-15T13:47:04.157Z,0.60
2022-10-15T13:49:33.116Z,1.10
2022-10-15T13:52:00.666Z,2.25
2022-10-15T13:54:31.731Z,2.38
2022-10-15T13:57:01.932Z,1.30
2022-10-15T13:59:31.690Z,1.73
2022-10-15T14:02:01.616Z,1.17
2022-10-15T14:04:30.889Z,4.80
2022-10-15T14:07:03.048Z,2.90
2022-10-15T14:09:34.262Z,2.03
2022-10-15T14:12:03.588Z,2.22
2022-10-15T14:14:35.059Z,0.50
2022-10-15T14:17:05.342Z,2.22
2022-10-15T14:19:34.780Z,0.93
2022-10-15T14:22:04.361Z,1.30
2022-10-15T14:24:34.753Z,0.52
2022-10-15T14:27:06.231Z,0.65
2022-10-15T14:29:39.738Z,0.68
2022-10-15T14:32:26.155Z,0.88
2022-10-15T14:34:55.198Z,2.55
2022-10-15T14:37:41.189Z,1.10
2022-10-15T14:40:19.557Z,1.02
2022-10-15T14:42:49.569Z,2.83
2022-10-15T14:45:26.931Z,2.22
2022-10-15T14:47:56.968Z,2.15
2022-10-15T14:50:26.729Z,2.05
2022-10-15T14:52:56.228Z,3.03
2022-10-15T14:55:33.018Z,3.78
2022-10-15T14:58:02.868Z,1.63
2022-10-15T15:00:33.977Z,0.95
2022-10-15T15:03:05.347Z,3.63
2022-10-15T15:05:45.523Z,1.27
2022-10-15T15:08:14.585Z,2.55
2022-10-15T15:10:42.909Z,1.65
2022-10-15T15:13:13.291Z,1.83
2022-10-15T15:15:41.467Z,1.92
2022-10-15T15:18:10.930Z,0.75
2022-10-15T15:20:38.804Z,1.27
2022-10-15T15:23:06.735Z,1.15
2022-10-15T15:25:37.018Z,0.45
2022-10-15T15:28:05.330Z,1.13
2022-10-15T15:30:35.287Z,2.22
2022-10-15T15:33:02.891Z,1.90
2022-10-15T15:35:36.120Z,1.52
2022-10-15T15:38:03.811Z,0.73
2022-10-15T15:40:31.900Z,1.75
2022-10-15T15:43:00.801Z,2.33
2022-10-15T15:45:29.564Z,2.53
2022-10-15T15:47:58.577Z,1.55
2022-10-15T15:50:26.259Z,0.63
2022-10-15T15:52:53.745Z,1.30
2022-10-15T15:55:21.411Z,0.50
2022-10-15T15:57:48.927Z,0.75
2022-10-15T16:00:18.156Z,1.45
2022-10-15T16:02:45.744Z,1.40
2022-10-15T16:05:15.873Z,1.63
2022-10-15T16:07:43.587Z,1.38
2022-10-15T16:10:12.516Z,0.80
2022-10-15T16:12:40.289Z,0.77
2022-10-15T16:15:13.413Z,1.25
2022-10-15T16:17:44.077Z,0.17
2022-10-15T16:20:12.635Z,1.85
2022-10-15T16:22:40.389Z,1.75
2022-10-15T16:25:09.267Z,0.90
2022-10-15T16:27:36.915Z,0.52
2022-10-15T16:30:05.126Z,0.55
2022-10-15T16:32:32.634Z,1.75
2022-10-15T16:35:01.820Z,0.38
2022-10-15T16:37:29.363Z,0.20
2022-10-15T16:39:56.981Z,1.92
2022-10-15T16:42:24.497Z,5.13
2022-10-15T16:44:52.666Z,2.03
2022-10-15T16:47:21.272Z,1.45
2022-10-15T16:49:48.815Z,1.77
2022-10-15T16:52:17.795Z,2.10
2022-10-15T16:54:45.296Z,1.48
2022-10-15T16:57:12.874Z,1.67
2022-10-15T16:59:40.516Z,4.72
2022-10-15T17:02:08.165Z,4.07
2022-10-15T17:04:35.769Z,3.00
2022-10-15T17:07:03.657Z,1.90
2022-10-15T17:09:32.568Z,12.80
2022-10-15T17:12:00.240Z,7.68
2022-10-15T17:14:27.865Z,8.48
2022-10-15T17:16:55.402Z,5.45
2022-10-15T17:19:28.964Z,1.05
2022-10-15T17:21:59.552Z,2.03
2022-10-15T17:24:27.158Z,16.40
2022-10-15T17:26:57.818Z,19.63
2022-10-15T17:29:29.054Z,5.07
2022-10-15T17:32:01.168Z,5.65
2022-10-15T17:34:28.781Z,3.95
2022-10-15T17:36:56.789Z,5.75
2022-10-15T17:39:24.745Z,1.88
2022-10-15T17:41:52.623Z,3.35
2022-10-15T17:44:21.666Z,3.80
2022-10-15T17:46:50.014Z,4.97
2022-10-15T17:49:19.208Z,1.75
2022-10-15T17:51:47.989Z,3.58
2022-10-15T17:54:15.697Z,3.90
2022-10-15T17:56:43.596Z,4.18
2022-10-15T17:59:13.329Z,4.97
2022-10-15T18:02:00.770Z,13.25
2022-10-15T18:04:33.107Z,7.70
2022-10-15T18:07:00.622Z,16.05
2022-10-15T18:09:28.945Z,8.35
2022-10-15T18:12:00.304Z,3.83
2022-10-15T18:14:34.804Z,2.45
2022-10-15T18:17:04.294Z,6.72
2022-10-15T18:19:31.978Z,3.25
2022-10-15T18:21:59.563Z,7.22
2022-10-15T18:24:27.209Z,3.45
2022-10-15T18:26:54.811Z,3.95
2022-10-15T18:29:25.044Z,1.48
2022-10-15T18:31:57.378Z,7.10
2022-10-15T18:34:28.691Z,4.70
2022-10-15T18:36:56.339Z,5.43
2022-10-15T18:39:24.468Z,6.05
2022-10-15T18:41:52.061Z,8.18
2022-10-15T18:44:21.434Z,15.35
2022-10-15T18:46:49.168Z,11.45
2022-10-15T18:49:18.580Z,3.95
2022-10-15T18:51:51.427Z,4.20
2022-10-15T18:54:19.093Z,1.85
2022-10-15T18:56:46.719Z,3.97
2022-10-15T18:59:16.023Z,3.35
2022-10-15T19:01:44.189Z,4.15
2022-10-15T19:04:13.695Z,5.43
2022-10-15T19:06:43.507Z,3.08
2022-10-15T19:09:14.067Z,3.25
2022-10-15T19:11:42.908Z,2.95
2022-10-15T19:14:10.624Z,3.90
2022-10-15T19:16:38.404Z,1.95
2022-10-15T19:19:15.496Z,1.95
2022-10-15T19:21:43.180Z,1.05
2022-10-15T19:24:12.216Z,0.82
2022-10-15T19:26:39.904Z,3.25
2022-10-15T19:29:07.520Z,5.30
2022-10-15T19:31:37.229Z,3.17
2022-10-15T19:34:05.224Z,7.90
2022-10-15T19:36:36.291Z,3.70
2022-10-15T19:39:07.938Z,5.85
2022-10-15T19:41:38.161Z,8.48
2022-10-15T19:44:07.761Z,4.03
2022-10-15T19:46:35.540Z,2.75
2022-10-15T19:49:03.060Z,2.50
2022-10-15T19:51:31.495Z,2.67
2022-10-15T19:54:00.008Z,2.92
2022-10-15T19:56:30.852Z,2.58
2022-10-15T19:59:02.064Z,6.40
2022-10-15T20:01:30.640Z,1.83
2022-10-15T20:04:03.153Z,7.45
2022-10-15T20:06:34.434Z,5.45
2022-10-15T20:09:02.074Z,6.88
2022-10-15T20:11:29.615Z,3.55
2022-10-15T20:13:57.473Z,2.20
2022-10-15T20:16:28.712Z,2.10
2022-10-15T20:18:59.161Z,1.98
2022-10-15T20:21:26.824Z,47.85
2022-10-15T20:23:54.458Z,39.22
2022-10-15T20:26:22.673Z,15.93
2022-10-15T20:28:50.521Z,8.80
2022-10-15T20:31:20.501Z,5.03
2022-10-15T20:33:50.945Z,8.43
2022-10-15T20:36:23.521Z,5.50
2022-10-15T20:38:51.799Z,4.55
2022-10-15T20:41:19.849Z,2.55
2022-10-15T20:43:52.732Z,1.80
2022-10-15T20:46:24.615Z,1.90
2022-10-15T20:48:54.964Z,5.68
2022-10-15T20:51:25.985Z,3.63
2022-10-15T20:53:56.661Z,6.25
2022-10-15T20:56:24.602Z,2.90
2022-10-15T20:58:52.157Z,0.70
2022-10-15T21:01:20.655Z,9.55
2022-10-15T21:03:48.256Z,8.07
2022-10-15T21:06:17.638Z,3.20
2022-10-15T21:08:45.171Z,2.80
2022-10-15T21:11:12.703Z,4.28
2022-10-15T21:13:40.290Z,2.53
2022-10-15T21:16:08.805Z,4.72
2022-10-15T21:18:37.260Z,4.97
2022-10-15T21:21:05.952Z,7.13
2022-10-15T21:23:35.527Z,3.08
2022-10-15T21:26:06.765Z,2.20
2022-10-15T21:28:35.110Z,6.90
2022-10-15T21:31:06.083Z,5.28
2022-10-15T21:33:33.838Z,4.85
2022-10-15T21:36:10.423Z,3.55
2022-10-15T21:38:39.323Z,1.20
2022-10-15T21:41:07.116Z,3.13
2022-10-15T21:43:34.733Z,3.95
2022-10-15T21:46:07.415Z,2.25
2022-10-15T21:48:36.459Z,3.43
2022-10-15T21:51:04.219Z,3.80
2022-10-15T21:53:31.750Z,2.60
2022-10-15T21:56:00.683Z,3.92
2022-10-15T21:58:28.171Z,1.38
2022-10-15T22:00:55.708Z,7.15
2022-10-15T22:03:23.404Z,2.58
2022-10-15T22:05:51.144Z,2.13
2022-10-15T22:08:18.648Z,3.28
2022-10-15T22:10:46.245Z,2.15
2022-10-15T22:13:15.081Z,2.17
2022-10-15T22:15:42.579Z,1.48
2022-10-15T22:18:10.079Z,2.60
2022-10-15T22:20:37.677Z,4.07
2022-10-15T22:23:05.247Z,2.42
2022-10-15T22:25:32.748Z,5.00
2022-10-15T22:28:00.275Z,1.40
2022-10-15T22:30:29.113Z,3.20
2022-10-15T22:32:56.604Z,1.27
2022-10-15T22:35:24.102Z,3.67
2022-10-15T22:37:52.772Z,3.90
2022-10-15T22:40:20.319Z,5.95
2022-10-15T22:42:48.413Z,2.63
2022-10-15T22:45:16.220Z,1.80
2022-10-15T22:47:45.051Z,3.05
2022-10-15T22:50:12.554Z,4.35
2022-10-15T22:52:40.042Z,2.15
2022-10-15T22:55:07.978Z,2.47
2022-10-15T22:57:35.488Z,7.13
2022-10-15T23:00:02.999Z,2.53
2022-10-15T23:02:30.557Z,1.60
2022-10-15T23:04:59.397Z,3.15
2022-10-15T23:07:26.958Z,1.98
2022-10-15T23:09:54.423Z,2.85
2022-10-15T23:12:22.410Z,1.77
2022-10-15T23:14:49.916Z,4.47
2022-10-15T23:17:17.514Z,2.20
2022-10-15T23:19:45.059Z,5.60
2022-10-15T23:22:13.876Z,2.63
2022-10-15T23:24:41.387Z,1.92
2022-10-15T23:27:09.920Z,2.65
2022-10-15T23:29:37.586Z,0.88
2022-10-15T23:32:05.270Z,3.17
2022-10-15T23:34:32.821Z,3.42
2022-10-15T23:37:00.312Z,2.70
2022-10-15T23:39:29.132Z,3.10
2022-10-15T23:41:56.679Z,2.40
2022-10-15T23:44:26.573Z,4.03
2022-10-15T23:46:54.222Z,0.65
2022-10-15T23:49:21.756Z,3.35
2022-10-15T23:51:49.398Z,1.88
2022-10-15T23:54:19.441Z,4.50
2022-10-15T23:56:49.397Z,2.40
2022-10-15T23:59:18.146Z,1.60
